createdAt,value
2022-10-22T00:01:39.021Z,98054.03
2022-10-22T00:04:07.009Z,98043.53
2022-10-22T00:06:35.679Z,98048.63
2022-10-22T00:09:04.757Z,98037.41
2022-10-22T00:11:31.871Z,98044.69
2022-10-22T00:14:00.264Z,98043.06
2022-10-22T00:16:27.597Z,98040.34
2022-10-22T00:18:54.750Z,98043.22
2022-10-22T00:21:21.725Z,98041.28
2022-10-22T00:23:49.036Z,98038.56
2022-10-22T00:26:16.618Z,98039.81
2022-10-22T00:28:45.923Z,98037.22
2022-10-22T00:31:13.363Z,98031.28
2022-10-22T00:33:40.559Z,98027.28
2022-10-22T00:36:09.943Z,98036.16
2022-10-22T00:38:37.452Z,98035.91
2022-10-22T00:41:04.772Z,98037.22
2022-10-22T00:43:32.097Z,98035.81
2022-10-22T00:45:59.134Z,98036.94
2022-10-22T00:48:30.038Z,98040.88
2022-10-22T00:51:20.010Z,98033.97
2022-10-22T00:53:56.162Z,98034.88
2022-10-22T00:56:24.892Z,98034.91
2022-10-22T00:59:00.779Z,98036.28
2022-10-22T01:01:31.939Z,98026.69
2022-10-22T01:04:00.473Z,98015.84
2022-10-22T01:06:34.435Z,98013.75
2022-10-22T01:09:47.534Z,98001.66
2022-10-22T01:12:50.539Z,98007.03
2022-10-22T01:15:59.656Z,98014.16
2022-10-22T01:19:17.685Z,98015.25
2022-10-22T01:21:54.185Z,98012.88
2022-10-22T01:24:32.481Z,98016.81
2022-10-22T01:27:21.071Z,98024.25
2022-10-22T01:30:15.788Z,98017.13
2022-10-22T01:33:07.381Z,98014.00
2022-10-22T01:35:45.637Z,98014.78
2022-10-22T01:38:21.906Z,98011.81
2022-10-22T01:40:51.181Z,98008.88
2022-10-22T01:43:18.761Z,97997.75
2022-10-22T01:46:02.701Z,97996.00
2022-10-22T01:49:31.023Z,97985.41
2022-10-22T01:52:10.297Z,97989.56
2022-10-22T01:55:06.267Z,97991.59
2022-10-22T01:58:07.893Z,97996.25
2022-10-22T02:00:46.268Z,97984.06
2022-10-22T02:03:47.029Z,97991.56
2022-10-22T02:06:55.793Z,97990.44
2022-10-22T02:09:27.044Z,97990.25
2022-10-22T02:14:36.871Z,97991.28
2022-10-22T02:17:08.530Z,97982.53
2022-10-22T02:19:47.584Z,97975.41
2022-10-22T02:22:20.197Z,97968.13
2022-10-22T02:24:49.385Z,97978.44
2022-10-22T02:27:47.907Z,97972.25
2022-10-22T02:30:20.257Z,97978.59
2022-10-22T02:33:12.900Z,97984.88
2022-10-22T02:35:43.853Z,97984.00
2022-10-22T02:38:13.879Z,97981.06
2022-10-22T02:40:45.600Z,97998.56
2022-10-22T02:43:12.797Z,97992.72
2022-10-22T02:45:40.492Z,97988.50
2022-10-22T02:48:07.950Z,97989.91
2022-10-22T02:50:35.565Z,97988.28
2022-10-22T02:53:03.642Z,97975.69
2022-10-22T02:55:33.390Z,97974.00
2022-10-22T02:58:03.702Z,97981.78
2022-10-22T03:00:31.391Z,97987.09
2022-10-22T03:02:58.495Z,97977.31
2022-10-22T03:05:25.933Z,97972.69
2022-10-22T03:07:53.274Z,97969.81
2022-10-22T03:10:20.718Z,97976.75
2022-10-22T03:12:58.581Z,97971.28
2022-10-22T03:18:01.675Z,97986.53
2022-10-22T03:20:29.174Z,97985.56
2022-10-22T03:23:01.275Z,97992.81
2022-10-22T03:25:31.204Z,97980.69
2022-10-22T03:28:07.667Z,97990.84
2022-10-22T03:30:34.733Z,97984.47
2022-10-22T03:33:01.843Z,97995.47
2022-10-22T03:35:30.155Z,97992.66
2022-10-22T03:38:01.806Z,97992.88
2022-10-22T03:40:29.896Z,98006.09
2022-10-22T03:42:59.101Z,97995.13
2022-10-22T03:45:29.347Z,97995.53
2022-10-22T03:47:56.536Z,97995.47
2022-10-22T03:50:26.706Z,98003.81
2022-10-22T03:52:53.846Z,97999.06
2022-10-22T03:55:21.161Z,98003.00
2022-10-22T03:57:51.356Z,98014.53
2022-10-22T04:00:19.817Z,98019.09
2022-10-22T04:02:47.149Z,98016.66
2022-10-22T04:07:48.765Z,98020.63
2022-10-22T04:10:23.314Z,98027.81
2022-10-22T04:12:51.565Z,98033.50
2022-10-22T04:15:19.078Z,98034.38
2022-10-22T04:17:48.539Z,98022.34
2022-10-22T04:20:16.041Z,98039.38
2022-10-22T04:22:43.484Z,98019.91
2022-10-22T04:25:14.121Z,98020.84
2022-10-22T04:27:41.334Z,98023.50
2022-10-22T04:30:12.946Z,98035.44
2022-10-22T04:32:40.018Z,98043.69
2022-10-22T04:35:08.455Z,98036.78
2022-10-22T04:37:37.471Z,98051.75
2022-10-22T04:40:05.998Z,98050.03
2022-10-22T04:42:33.095Z,98043.59
2022-10-22T04:45:00.035Z,98026.13
2022-10-22T04:47:27.219Z,98021.00
2022-10-22T04:49:56.109Z,98033.16
2022-10-22T04:52:23.190Z,98040.63
2022-10-22T04:54:50.140Z,98036.72
2022-10-22T04:57:17.223Z,98039.06
2022-10-22T04:59:44.176Z,98036.66
2022-10-22T05:02:11.372Z,98039.81
2022-10-22T05:04:38.544Z,98041.50
2022-10-22T05:07:06.127Z,98042.09
2022-10-22T05:09:34.540Z,98035.44
2022-10-22T05:12:01.863Z,98028.47
2022-10-22T05:14:28.897Z,98049.84
2022-10-22T05:16:55.950Z,98038.44
2022-10-22T05:19:31.448Z,98028.44
2022-10-22T05:22:02.707Z,98037.84
2022-10-22T05:24:34.896Z,98036.44
2022-10-22T05:27:04.823Z,98031.91
2022-10-22T05:29:41.024Z,98037.00
2022-10-22T05:32:10.550Z,98040.22
2022-10-22T05:34:37.831Z,98025.53
2022-10-22T05:37:04.930Z,98034.47
2022-10-22T05:39:31.998Z,98036.03
2022-10-22T05:41:59.108Z,98033.09
2022-10-22T05:44:26.288Z,98042.38
2022-10-22T05:46:55.977Z,98042.41
2022-10-22T05:49:23.074Z,98042.22
2022-10-22T05:51:53.225Z,98049.31
2022-10-22T05:54:22.477Z,98042.84
2022-10-22T05:56:57.789Z,98036.97
2022-10-22T05:59:24.869Z,98042.94
2022-10-22T06:01:53.293Z,98038.03
2022-10-22T06:04:23.361Z,98043.25
2022-10-22T06:06:53.426Z,98057.78
2022-10-22T06:12:09.074Z,98063.13
2022-10-22T06:14:40.733Z,98063.09
2022-10-22T06:17:08.500Z,98067.88
2022-10-22T06:19:35.743Z,98059.94
2022-10-22T06:22:06.317Z,98058.66
2022-10-22T06:24:33.421Z,98075.63
2022-10-22T06:27:03.364Z,98071.56
2022-10-22T06:29:31.428Z,98089.88
2022-10-22T06:32:07.662Z,98076.06
2022-10-22T06:34:39.141Z,98087.97
2022-10-22T06:37:07.418Z,98090.31
2022-10-22T06:39:34.564Z,98090.56
2022-10-22T06:42:01.750Z,98115.72
2022-10-22T06:44:29.355Z,98112.84
2022-10-22T06:46:56.517Z,98102.06
2022-10-22T06:49:23.793Z,98118.34
2022-10-22T06:51:53.139Z,98104.38
2022-10-22T06:54:22.544Z,98108.00
2022-10-22T06:56:51.343Z,98108.50
2022-10-22T06:59:18.525Z,98103.91
2022-10-22T07:01:45.768Z,98119.19
2022-10-22T07:04:16.005Z,98134.94
2022-10-22T07:06:43.291Z,98129.63
2022-10-22T07:09:13.061Z,98140.38
2022-10-22T07:11:47.700Z,98134.50
2022-10-22T07:14:15.742Z,98115.84
2022-10-22T07:16:43.367Z,98117.56
2022-10-22T07:19:10.693Z,98130.88
2022-10-22T07:21:38.150Z,98132.16
2022-10-22T07:24:05.633Z,98151.09
2022-10-22T07:26:33.899Z,98136.34
2022-10-22T07:29:01.744Z,98128.09
2022-10-22T07:31:30.277Z,98148.25
2022-10-22T07:33:58.457Z,98149.34
2022-10-22T07:36:28.754Z,98148.06
2022-10-22T07:39:00.854Z,98151.84
2022-10-22T07:41:32.130Z,98159.75
2022-10-22T07:44:00.186Z,98120.66
2022-10-22T07:46:27.685Z,98145.59
2022-10-22T07:48:57.970Z,98132.88
2022-10-22T07:51:25.145Z,98141.38
2022-10-22T07:53:52.603Z,98157.59
2022-10-22T07:56:19.809Z,98150.16
2022-10-22T07:58:46.904Z,98154.28
2022-10-22T08:01:14.069Z,98150.56
2022-10-22T08:03:42.716Z,98163.38
2022-10-22T08:06:13.754Z,98171.88
2022-10-22T08:08:42.409Z,98171.31
2022-10-22T08:11:10.911Z,98171.50
2022-10-22T08:13:44.899Z,98167.78
2022-10-22T08:16:13.000Z,98177.72
2022-10-22T08:18:43.989Z,98166.91
2022-10-22T08:21:14.713Z,98169.72
2022-10-22T08:23:41.872Z,98168.56
2022-10-22T08:26:28.526Z,98155.00
2022-10-22T08:28:56.083Z,98156.84
2022-10-22T08:31:23.684Z,98172.47
2022-10-22T08:33:53.681Z,98172.72
2022-10-22T08:36:20.874Z,98167.47
2022-10-22T08:38:51.425Z,98170.13
2022-10-22T08:41:25.582Z,98172.88
2022-10-22T08:44:24.438Z,98159.91
2022-10-22T08:47:40.149Z,98165.25
2022-10-22T08:50:15.108Z,98167.22
2022-10-22T08:52:49.334Z,98163.38
2022-10-22T08:55:17.709Z,98157.44
2022-10-22T08:58:03.509Z,98167.69
2022-10-22T09:00:38.538Z,98165.63
2022-10-22T09:03:43.000Z,98168.03
2022-10-22T09:06:16.949Z,98171.47
2022-10-22T09:08:48.370Z,98181.38
2022-10-22T09:11:38.034Z,98175.50
2022-10-22T09:14:16.825Z,98179.34
2022-10-22T09:17:19.578Z,98192.03
2022-10-22T09:20:03.703Z,98196.78
2022-10-22T09:22:53.125Z,98198.03
2022-10-22T09:25:26.761Z,98196.00
2022-10-22T09:27:59.730Z,98208.97
2022-10-22T09:30:34.811Z,98206.22
2022-10-22T09:33:07.740Z,98204.22
2022-10-22T09:35:44.351Z,98213.13
2022-10-22T09:38:17.213Z,98210.41
2022-10-22T09:40:54.670Z,98201.16
2022-10-22T09:43:23.528Z,98198.38
2022-10-22T09:46:00.473Z,98187.19
2022-10-22T09:48:39.571Z,98186.34
2022-10-22T09:51:36.334Z,98199.53
2022-10-22T09:54:25.535Z,98198.50
2022-10-22T09:57:22.223Z,98196.41
2022-10-22T09:59:58.060Z,98198.25
2022-10-22T10:02:44.433Z,98207.41
2022-10-22T10:05:25.086Z,98201.88
2022-10-22T10:08:01.906Z,98207.19
2022-10-22T10:10:49.432Z,98205.94
2022-10-22T10:14:01.539Z,98202.09
2022-10-22T10:17:06.433Z,98206.34
2022-10-22T10:20:15.307Z,98195.22
2022-10-22T10:23:01.354Z,98194.59
2022-10-22T10:25:54.435Z,98187.34
2022-10-22T10:28:55.206Z,98190.22
2022-10-22T10:31:55.572Z,98198.63
2022-10-22T10:35:16.578Z,98182.50
2022-10-22T10:38:25.926Z,98194.84
2022-10-22T10:40:59.826Z,98187.66
2022-10-22T10:44:20.292Z,98191.53
2022-10-22T10:47:07.517Z,98180.41
2022-10-22T10:49:36.759Z,98177.63
2022-10-22T10:52:21.650Z,98174.91
2022-10-22T10:55:03.904Z,98156.06
2022-10-22T10:58:02.079Z,98157.00
2022-10-22T11:00:41.395Z,98159.03
2022-10-22T11:03:50.470Z,98178.13
2022-10-22T11:06:25.385Z,98159.56
2022-10-22T11:09:17.890Z,98160.34
2022-10-22T11:11:55.482Z,98150.28
2022-10-22T11:15:24.198Z,98144.97
2022-10-22T11:17:56.711Z,98164.16
2022-10-22T11:20:36.973Z,98164.34
2022-10-22T11:23:21.519Z,98148.94
2022-10-22T11:25:53.178Z,98163.97
2022-10-22T11:28:29.003Z,98138.47
2022-10-22T11:31:17.501Z,98157.28
2022-10-22T11:34:21.729Z,98135.38
2022-10-22T11:36:58.303Z,98136.59
2022-10-22T11:39:45.770Z,98138.28
2022-10-22T11:42:32.650Z,98121.47
2022-10-22T11:45:09.052Z,98128.22
2022-10-22T11:48:15.496Z,98123.97
2022-10-22T11:50:53.126Z,98132.53
2022-10-22T11:53:37.569Z,98121.16
2022-10-22T11:56:10.360Z,98114.06
2022-10-22T11:58:43.975Z,98131.38
2022-10-22T12:01:11.224Z,98130.34
2022-10-22T12:04:00.016Z,98134.16
2022-10-22T12:07:12.511Z,98129.97
2022-10-22T12:09:56.257Z,98147.47
2022-10-22T12:12:51.174Z,98135.00
2022-10-22T12:15:52.461Z,98109.38
2022-10-22T12:18:53.759Z,98119.66
2022-10-22T12:21:31.047Z,98098.72
2022-10-22T12:24:07.860Z,98119.69
2022-10-22T12:26:38.370Z,98112.22
2022-10-22T12:29:22.393Z,98116.72
2022-10-22T12:32:09.230Z,98110.72
2022-10-22T12:35:02.076Z,98109.84
2022-10-22T12:37:46.002Z,98098.66
2022-10-22T12:40:46.031Z,98108.31
2022-10-22T12:43:37.792Z,98095.53
2022-10-22T12:46:19.828Z,98069.56
2022-10-22T12:49:00.613Z,98070.06
2022-10-22T12:51:43.915Z,98063.31
2022-10-22T12:54:35.884Z,98097.09
2022-10-22T12:57:11.225Z,98079.47
2022-10-22T13:02:39.232Z,98068.28
2022-10-22T13:05:31.188Z,98077.91
2022-10-22T13:08:29.415Z,98058.34
2022-10-22T13:11:12.424Z,98072.16
2022-10-22T13:13:39.399Z,98075.97
2022-10-22T13:16:26.026Z,98074.94
2022-10-22T13:18:56.521Z,98074.88
2022-10-22T13:21:50.581Z,98075.63
2022-10-22T13:24:24.936Z,98061.13
2022-10-22T13:26:57.621Z,98087.06
2022-10-22T13:29:26.248Z,98087.13
2022-10-22T13:31:54.331Z,98083.06
2022-10-22T13:34:25.754Z,98082.84
2022-10-22T13:36:57.827Z,98089.56
2022-10-22T13:39:25.760Z,98084.25
2022-10-22T13:41:52.910Z,98089.41
2022-10-22T13:44:20.810Z,98069.44
2022-10-22T13:46:49.427Z,98056.84
2022-10-22T13:49:27.224Z,98069.97
2022-10-22T13:51:54.360Z,98056.72
2022-10-22T13:54:24.983Z,98066.69
2022-10-22T13:56:54.323Z,98060.03
2022-10-22T13:59:24.149Z,98061.09
2022-10-22T14:01:52.284Z,98067.66
2022-10-22T14:04:21.975Z,98087.09
2022-10-22T14:06:49.634Z,98073.06
2022-10-22T14:09:24.972Z,98087.63
2022-10-22T14:11:52.235Z,98085.56
2022-10-22T14:14:19.365Z,98090.41
2022-10-22T14:16:51.318Z,98097.13
2022-10-22T14:19:18.861Z,98096.66
2022-10-22T14:21:49.421Z,98102.44
2022-10-22T14:24:19.503Z,98099.19
2022-10-22T14:26:49.534Z,98085.09
2022-10-22T14:29:16.752Z,98091.72
2022-10-22T14:31:47.314Z,98098.13
2022-10-22T14:34:16.950Z,98075.03
2022-10-22T14:36:44.665Z,98072.75
2022-10-22T14:39:16.177Z,98087.03
2022-10-22T14:41:43.772Z,98088.50
2022-10-22T14:44:14.587Z,98104.41
2022-10-22T14:46:44.479Z,98120.16
2022-10-22T14:49:12.261Z,98105.06
2022-10-22T14:51:42.141Z,98090.34
2022-10-22T14:54:09.184Z,98089.59
2022-10-22T14:56:43.595Z,98085.06
2022-10-22T14:59:13.560Z,98094.69
2022-10-22T15:01:44.614Z,98104.34
2022-10-22T15:04:11.935Z,98107.03
2022-10-22T15:06:42.885Z,98107.81
2022-10-22T15:09:13.293Z,98108.84
2022-10-22T15:11:41.260Z,98109.34
2022-10-22T15:14:11.703Z,98097.44
2022-10-22T15:16:39.584Z,98100.97
2022-10-22T15:19:07.721Z,98111.34
2022-10-22T15:21:37.244Z,98114.88
2022-10-22T15:24:07.034Z,98114.25
2022-10-22T15:26:34.567Z,98107.78
2022-10-22T15:29:04.939Z,98099.50
2022-10-22T15:31:57.899Z,98109.63
2022-10-22T15:34:33.901Z,98097.78
2022-10-22T15:37:05.898Z,98117.78
2022-10-22T15:39:36.195Z,98116.97
2022-10-22T15:42:07.118Z,98109.97
2022-10-22T15:44:34.949Z,98120.03
2022-10-22T15:47:06.616Z,98120.63
2022-10-22T15:49:38.537Z,98122.63
2022-10-22T15:52:07.191Z,98125.75
2022-10-22T15:54:37.728Z,98122.97
2022-10-22T15:57:13.995Z,98126.00
2022-10-22T15:59:45.370Z,98119.34
2022-10-22T16:02:26.931Z,98121.53
2022-10-22T16:05:07.907Z,98126.63
2022-10-22T16:08:04.424Z,98129.41
2022-10-22T16:10:47.741Z,98126.75
2022-10-22T16:13:25.801Z,98134.13
2022-10-22T16:15:57.995Z,98139.13
2022-10-22T16:18:32.579Z,98143.28
2022-10-22T16:21:09.835Z,98147.78
2022-10-22T16:23:45.580Z,98137.19
2022-10-22T16:26:19.146Z,98151.59
2022-10-22T16:28:52.572Z,98140.56
2022-10-22T16:31:29.446Z,98140.16
2022-10-22T16:33:59.781Z,98141.19
2022-10-22T16:36:32.961Z,98136.75
2022-10-22T16:39:06.579Z,98165.63
2022-10-22T16:41:38.766Z,98160.94
2022-10-22T16:44:19.224Z,98159.09
2022-10-22T16:46:52.947Z,98152.09
2022-10-22T16:49:27.136Z,98149.72
2022-10-22T16:51:54.932Z,98151.16
2022-10-22T16:54:25.636Z,98144.69
2022-10-22T16:56:57.163Z,98156.63
2022-10-22T16:59:28.749Z,98161.50
2022-10-22T17:02:01.891Z,98165.53
2022-10-22T17:04:44.653Z,98170.06
2022-10-22T17:07:28.764Z,98181.78
2022-10-22T17:10:04.256Z,98182.88
2022-10-22T17:12:43.107Z,98188.19
2022-10-22T17:15:29.154Z,98195.41
2022-10-22T17:18:09.225Z,98183.09
2022-10-22T17:21:00.815Z,98195.34
2022-10-22T17:24:28.044Z,98197.28
2022-10-22T17:27:21.233Z,98196.53
2022-10-22T17:30:24.939Z,98214.28
2022-10-22T17:33:05.055Z,98199.38
2022-10-22T17:35:52.804Z,98208.91
2022-10-22T17:38:25.272Z,98208.78
2022-10-22T17:41:07.493Z,98205.81
2022-10-22T17:43:41.539Z,98208.91
2022-10-22T17:46:18.190Z,98207.03
2022-10-22T17:48:51.156Z,98213.75
2022-10-22T17:51:26.097Z,98208.66
2022-10-22T17:53:59.862Z,98198.94
2022-10-22T17:57:06.254Z,98212.25
2022-10-22T17:59:52.177Z,98206.16
2022-10-22T18:02:24.014Z,98218.75
2022-10-22T18:05:22.808Z,98210.44
2022-10-22T18:08:06.969Z,98211.13
2022-10-22T18:10:48.668Z,98209.22
2022-10-22T18:13:22.378Z,98214.59
2022-10-22T18:16:03.107Z,98207.31
2022-10-22T18:18:33.370Z,98214.34
2022-10-22T18:21:18.524Z,98212.72
2022-10-22T18:23:58.149Z,98229.19
2022-10-22T18:26:35.856Z,98215.25
2022-10-22T18:29:16.182Z,98215.53
2022-10-22T18:32:15.084Z,98214.56
2022-10-22T18:34:49.397Z,98209.84
2022-10-22T18:37:44.868Z,98213.34
2022-10-22T18:40:20.688Z,98210.06
2022-10-22T18:43:05.925Z,98202.19
2022-10-22T18:45:41.574Z,98204.91
2022-10-22T18:48:18.863Z,98225.84
2022-10-22T18:51:01.792Z,98227.38
2022-10-22T18:54:23.926Z,98221.91
2022-10-22T18:57:03.023Z,98226.19
2022-10-22T18:59:47.862Z,98232.06
2022-10-22T19:02:34.045Z,98237.47
2022-10-22T19:05:18.517Z,98239.59
2022-10-22T19:11:21.316Z,98234.41
2022-10-22T19:14:15.453Z,98229.91
2022-10-22T19:16:51.353Z,98238.44
2022-10-22T19:19:58.742Z,98244.31
2022-10-22T19:22:44.124Z,98245.53
2022-10-22T19:25:17.551Z,98239.97
2022-10-22T19:27:53.412Z,98250.88
2022-10-22T19:30:28.564Z,98244.09
2022-10-22T19:32:59.137Z,98254.09
2022-10-22T19:35:42.368Z,98254.56
2022-10-22T19:38:20.171Z,98254.19
2022-10-22T19:41:17.433Z,98259.31
2022-10-22T19:43:51.957Z,98248.59
2022-10-22T19:46:42.025Z,98253.63
2022-10-22T19:49:15.433Z,98257.28
2022-10-22T19:51:47.570Z,98254.47
2022-10-22T19:54:23.487Z,98251.38
2022-10-22T19:57:17.515Z,98254.28
2022-10-22T19:59:58.758Z,98262.31
2022-10-22T20:02:32.231Z,98276.00
2022-10-22T20:05:11.230Z,98273.34
2022-10-22T20:07:44.996Z,98268.22
2022-10-22T20:10:21.982Z,98266.59
2022-10-22T20:12:58.380Z,98272.06
2022-10-22T20:15:36.489Z,98264.81
2022-10-22T20:18:08.233Z,98269.56
2022-10-22T20:21:01.814Z,98266.03
2022-10-22T20:23:35.272Z,98259.66
2022-10-22T20:28:57.875Z,98255.13
2022-10-22T20:31:34.244Z,98246.31
2022-10-22T20:34:06.304Z,98257.91
2022-10-22T20:36:33.984Z,98258.53
2022-10-22T20:39:08.670Z,98271.03
2022-10-22T20:41:49.815Z,98268.34
2022-10-22T20:44:42.231Z,98262.09
2022-10-22T20:47:13.255Z,98261.34
2022-10-22T20:49:59.318Z,98263.81
2022-10-22T20:52:35.999Z,98266.31
2022-10-22T20:55:05.233Z,98269.00
2022-10-22T20:57:43.430Z,98286.66
2022-10-22T21:00:23.169Z,98286.56
2022-10-22T21:03:05.538Z,98276.75
2022-10-22T21:05:54.394Z,98286.47
2022-10-22T21:08:32.055Z,98283.03
2022-10-22T21:11:09.713Z,98274.47
2022-10-22T21:13:51.048Z,98284.06
2022-10-22T21:19:13.805Z,98289.34
2022-10-22T21:21:52.980Z,98282.66
2022-10-22T21:24:28.861Z,98286.66
2022-10-22T21:27:07.718Z,98294.47
2022-10-22T21:29:40.393Z,98288.66
2022-10-22T21:32:17.849Z,98293.47
2022-10-22T21:34:52.717Z,98302.16
2022-10-22T21:37:32.135Z,98294.97
2022-10-22T21:40:04.995Z,98297.91
2022-10-22T21:42:49.590Z,98301.53
2022-10-22T21:45:28.200Z,98312.81
2022-10-22T21:47:57.069Z,98315.38
2022-10-22T21:50:37.483Z,98310.06
2022-10-22T21:53:16.076Z,98317.41
2022-10-22T21:55:55.407Z,98313.16
2022-10-22T21:58:26.017Z,98314.22
2022-10-22T22:01:06.016Z,98311.81
2022-10-22T22:03:52.431Z,98313.84
2022-10-22T22:06:33.624Z,98312.75
2022-10-22T22:09:21.609Z,98310.19
2022-10-22T22:12:10.474Z,98308.47
2022-10-22T22:14:56.835Z,98314.78
2022-10-22T22:17:27.383Z,98305.53
2022-10-22T22:19:57.221Z,98307.94
2022-10-22T22:22:34.464Z,98310.00
2022-10-22T22:25:03.990Z,98299.41
2022-10-22T22:27:44.983Z,98296.16
2022-10-22T22:30:13.591Z,98292.28
2022-10-22T22:32:48.991Z,98295.19
2022-10-22T22:35:20.530Z,98285.03
2022-10-22T22:37:54.198Z,98284.03
2022-10-22T22:40:31.510Z,98278.13
2022-10-22T22:43:10.920Z,98278.22
2022-10-22T22:45:44.566Z,98278.31
2022-10-22T22:48:20.619Z,98274.03
2022-10-22T22:50:53.630Z,98279.41
2022-10-22T22:53:30.123Z,98279.03
2022-10-22T22:56:37.307Z,98277.78
2022-10-22T22:59:13.919Z,98264.88
2022-10-22T23:01:50.449Z,98273.88
2022-10-22T23:04:28.460Z,98266.34
2022-10-22T23:07:12.676Z,98261.72
2022-10-22T23:09:42.682Z,98268.50
2022-10-22T23:12:18.506Z,98269.22
2022-10-22T23:14:48.385Z,98266.75
2022-10-22T23:17:21.896Z,98264.72
2022-10-22T23:20:01.618Z,98265.34
2022-10-22T23:22:34.865Z,98256.19
2022-10-22T23:25:03.507Z,98281.69
2022-10-22T23:27:33.960Z,98259.03
2022-10-22T23:30:08.071Z,98266.94
2022-10-22T23:32:43.516Z,98277.13
2022-10-22T23:35:11.204Z,98267.81
2022-10-22T23:37:42.975Z,98268.53
2022-10-22T23:40:12.540Z,98266.09
2022-10-22T23:42:51.427Z,98265.94
2022-10-22T23:45:21.490Z,98259.66
2022-10-22T23:47:59.070Z,98269.63
2022-10-22T23:50:29.028Z,98261.25
2022-10-22T23:53:00.479Z,98254.75
2022-10-22T23:55:28.048Z,98253.13
2022-10-22T23:58:03.197Z,98251.31
